Time;durP1;ratioP1;P1;durP2;ratioP2;P2;SDS_P1;SDS_P2;PMS_P1;PMS_P2;Temp;Humidity;BMP_temperature;BMP_pressure;BME280_temperature;BME280_humidity;BME280_pressure;Samples;Min_cycle;Max_cycle;Signal;HPM_P1;HPM_P2
2021/05/17 00:01:01;;;;;;;3.92;0.70;;;;;;;5.41;100.00;92102.81;2117853;27;20065;-85
2021/05/17 00:02:03;;;;;;;1.25;0.40;;;;;;;5.42;100.00;92097.09;2118451;27;20027;-87
2021/05/17 00:03:07;;;;;;;0.65;0.40;;;;;;;5.64;100.00;92101.97;2118201;27;20118;-85
2021/05/17 00:04:11;;;;;;;1.58;0.35;;;;;;;5.42;100.00;92105.03;2112367;27;20036;-85
2021/05/17 00:05:12;;;;;;;2.42;0.30;;;;;;;5.42;100.00;92109.59;2117185;27;20510;-87
2021/05/17 00:06:13;;;;;;;0.88;0.30;;;;;;;5.35;100.00;92104.41;2117397;27;20024;-85
2021/05/17 00:07:15;;;;;;;1.88;0.85;;;;;;;5.25;100.00;92106.84;2109114;28;20032;-86
2021/05/17 00:08:16;;;;;;;1.50;0.40;;;;;;;5.20;100.00;92109.97;2109227;28;20477;-85
2021/05/17 00:09:17;;;;;;;1.23;0.32;;;;;;;5.26;100.00;92113.66;2102535;28;20016;-88
2021/05/17 00:10:19;;;;;;;1.95;0.30;;;;;;;5.45;100.00;92114.84;2100473;28;20020;-87
2021/05/17 00:11:20;;;;;;;0.82;0.40;;;;;;;5.36;100.00;92119.94;2100926;28;20165;-87
2021/05/17 00:12:20;;;;;;;0.50;0.40;;;;;;;5.36;100.00;92122.56;2100966;28;20025;-84
2021/05/17 00:13:21;;;;;;;2.22;0.30;;;;;;;5.32;100.00;92116.59;2102715;28;20067;-87
2021/05/17 00:14:25;;;;;;;6.18;0.40;;;;;;;5.32;100.00;92115.84;2100258;28;20142;-88
2021/05/17 00:15:26;;;;;;;0.40;0.30;;;;;;;5.33;100.00;92102.19;2109228;28;20500;-86
2021/05/17 00:16:27;;;;;;;1.10;0.40;;;;;;;5.36;100.00;92097.97;2101306;28;20036;-86
2021/05/17 00:17:29;;;;;;;1.30;0.30;;;;;;;5.38;100.00;92098.31;2092919;28;20125;-85
2021/05/17 00:18:30;;;;;;;1.10;0.30;;;;;;;5.26;100.00;92102.31;2100512;28;20028;-86
2021/05/17 00:19:31;;;;;;;1.13;0.30;;;;;;;5.29;100.00;92094.28;2102412;28;20020;-85
2021/05/17 00:20:32;;;;;;;1.10;0.40;;;;;;;5.25;100.00;92093.59;2092339;28;20095;-86
2021/05/17 00:21:33;;;;;;;0.52;0.30;;;;;;;5.15;100.00;92089.25;2107541;28;20628;-86
2021/05/17 00:22:34;;;;;;;0.63;0.30;;;;;;;5.17;100.00;92091.50;2116743;27;20024;-85
2021/05/17 00:23:36;;;;;;;0.35;0.30;;;;;;;5.22;100.00;92086.50;2109483;28;20058;-84
2021/05/17 00:24:36;;;;;;;0.98;0.30;;;;;;;5.30;100.00;92085.19;2110200;28;20024;-86
2021/05/17 00:25:37;;;;;;;2.03;0.30;;;;;;;5.27;100.00;92088.66;2110055;28;20885;-86
2021/05/17 00:26:39;;;;;;;2.13;0.40;;;;;;;5.22;100.00;92091.03;2100253;28;20512;-86
2021/05/17 00:27:41;;;;;;;0.20;0.20;;;;;;;5.18;100.00;92085.81;2100692;28;20061;-86
2021/05/17 00:28:41;;;;;;;0.32;0.28;;;;;;;5.11;100.00;92085.94;2109606;27;20032;-86
2021/05/17 00:29:42;;;;;;;0.32;0.30;;;;;;;5.08;100.00;92089.38;2111174;28;20634;-86
2021/05/17 00:30:43;;;;;;;1.15;0.20;;;;;;;5.22;100.00;92086.50;2108841;28;20027;-87
2021/05/17 00:31:45;;;;;;;1.10;0.20;;;;;;;5.13;100.00;92085.50;2101641;28;20056;-86
2021/05/17 00:32:46;;;;;;;0.40;0.20;;;;;;;5.14;100.00;92077.19;2092005;28;20375;-86
2021/05/17 00:33:47;;;;;;;1.60;0.30;;;;;;;5.23;100.00;92074.00;2091760;28;20021;-86
2021/05/17 00:34:49;;;;;;;4.10;0.50;;;;;;;5.01;100.00;92078.94;2092787;28;20032;-85
2021/05/17 00:35:51;;;;;;;1.38;0.30;;;;;;;5.03;100.00;92079.25;2092985;28;20101;-87
2021/05/17 00:36:53;;;;;;;1.75;0.25;;;;;;;5.00;100.00;92080.84;2107467;28;20404;-86
2021/05/17 00:37:54;;;;;;;0.38;0.20;;;;;;;5.04;100.00;92088.69;2109579;28;20023;-86
2021/05/17 00:38:55;;;;;;;0.77;0.25;;;;;;;4.91;100.00;92080.59;2099836;27;20070;-87
2021/05/17 00:39:56;;;;;;;0.30;0.30;;;;;;;4.87;100.00;92076.50;2106565;28;20024;-86
2021/05/17 00:40:57;;;;;;;1.05;0.20;;;;;;;4.89;100.00;92072.31;2101963;28;20028;-88
2021/05/17 00:41:58;;;;;;;0.77;0.30;;;;;;;4.96;100.00;92071.44;2100844;28;20059;-87
2021/05/17 00:42:59;;;;;;;2.47;0.30;;;;;;;4.88;100.00;92070.81;2101707;28;20404;-86
2021/05/17 00:44:00;;;;;;;0.43;0.30;;;;;;;4.88;100.00;92073.47;2099663;28;20111;-87
2021/05/17 00:45:01;;;;;;;0.45;0.40;;;;;;;4.82;100.00;92071.69;2099993;28;20027;-87
2021/05/17 00:46:07;;;;;;;0.38;0.20;;;;;;;4.87;100.00;92071.97;2093199;28;20024;-85
2021/05/17 00:47:14;;;;;;;1.65;0.40;;;;;;;4.87;100.00;92071.22;2102115;28;20048;-86
2021/05/17 00:48:15;;;;;;;1.13;0.40;;;;;;;4.95;100.00;92069.94;2110040;28;20028;-86
2021/05/17 00:49:16;;;;;;;1.05;0.43;;;;;;;4.89;100.00;92063.63;2115867;27;20499;-87
2021/05/17 00:50:20;;;;;;;0.80;0.30;;;;;;;4.87;100.00;92071.22;2099792;28;20040;-87
2021/05/17 00:51:22;;;;;;;0.20;0.20;;;;;;;4.87;100.00;92071.22;2103137;27;20019;-86
2021/05/17 00:52:24;;;;;;;0.77;0.20;;;;;;;4.87;100.00;92069.31;2109973;28;20088;-87
2021/05/17 00:53:25;;;;;;;0.70;0.20;;;;;;;4.87;100.00;92066.66;2107257;27;20024;-87
2021/05/17 00:54:26;;;;;;;0.30;0.30;;;;;;;4.87;100.00;92076.50;2105486;28;20049;-86
2021/05/17 00:55:30;;;;;;;1.35;0.40;;;;;;;4.89;100.00;92068.94;2106518;28;20036;-85
2021/05/17 00:56:31;;;;;;;1.35;0.20;;;;;;;4.96;100.00;92077.50;2107739;27;20138;-86
2021/05/17 00:57:32;;;;;;;1.33;0.30;;;;;;;4.94;100.00;92077.13;2107056;28;20558;-86
2021/05/17 00:58:33;;;;;;;0.75;0.30;;;;;;;4.95;100.00;92075.25;2100079;28;20976;-86
2021/05/17 00:59:34;;;;;;;3.05;0.40;;;;;;;4.96;100.00;92072.19;2101805;28;20075;-87
2021/05/17 01:00:35;;;;;;;0.30;0.30;;;;;;;4.99;100.00;92074.03;2110725;28;20124;-86
2021/05/17 01:01:37;;;;;;;3.80;0.40;;;;;;;5.00;100.00;92074.75;2117103;27;20029;-87
2021/05/17 01:02:37;;;;;;;0.57;0.20;;;;;;;5.03;100.00;92072.06;2113312;28;20023;-87
2021/05/17 01:03:38;;;;;;;0.52;0.30;;;;;;;5.12;100.00;92070.78;2105251;28;20485;-87
2021/05/17 01:04:39;;;;;;;0.90;0.30;;;;;;;5.12;100.00;92076.81;2117393;27;20077;-85
2021/05/17 01:05:39;;;;;;;0.32;0.20;;;;;;;5.10;100.00;92079.16;2110053;28;20454;-85
2021/05/17 01:06:45;;;;;;;2.40;0.35;;;;;;;5.08;100.00;92073.50;2100539;28;20066;-86
2021/05/17 01:07:48;;;;;;;2.20;0.30;;;;;;;5.15;100.00;92072.63;2101742;28;20020;-86
2021/05/17 01:09:00;;;;;;;1.33;0.40;;;;;;;5.20;100.00;92069.50;2108801;27;20553;-87
2021/05/17 01:10:04;;;;;;;2.92;0.40;;;;;;;5.18;100.00;92066.50;2111080;27;20452;-86
2021/05/17 01:11:05;;;;;;;1.63;0.30;;;;;;;5.14;100.00;92056.00;2108840;28;20393;-88
2021/05/17 01:12:07;;;;;;;1.15;0.30;;;;;;;5.26;100.00;92063.31;2108762;28;20031;-86
2021/05/17 01:13:08;;;;;;;6.63;0.80;;;;;;;5.44;100.00;92056.91;2114320;27;20027;-85
2021/05/17 01:14:10;;;;;;;1.95;0.93;;;;;;;5.45;100.00;92056.53;2107499;28;20038;-87
2021/05/17 01:15:13;;;;;;;1.10;0.40;;;;;;;5.37;100.00;92049.88;2098079;28;20047;-86
2021/05/17 01:16:14;;;;;;;1.00;0.57;;;;;;;5.38;100.00;92056.66;2099563;28;20016;-86
2021/05/17 01:17:15;;;;;;;1.85;0.68;;;;;;;5.25;100.00;92059.16;2100407;28;20123;-86
2021/05/17 01:18:16;;;;;;;2.35;0.60;;;;;;;5.22;100.00;92053.94;2102692;28;20044;-85
2021/05/17 01:19:28;;;;;;;2.90;0.75;;;;;;;5.28;100.00;92061.00;2118247;27;20019;-86
2021/05/17 01:20:32;;;;;;;3.90;0.63;;;;;;;5.31;100.00;92062.09;2116119;27;20019;-87
2021/05/17 01:21:36;;;;;;;1.83;0.68;;;;;;;5.36;100.00;92058.97;2100664;27;20049;-86
2021/05/17 01:23:01;;;;;;;1.58;0.50;;;;;;;5.32;100.00;92058.31;2109985;27;20062;-86
2021/05/17 01:24:03;;;;;;;3.55;0.50;;;;;;;5.27;100.00;92051.56;2124690;27;20387;-86
2021/05/17 01:25:05;;;;;;;3.10;0.77;;;;;;;5.24;100.00;92046.34;2124832;27;20027;-86
2021/05/17 01:26:06;;;;;;;5.90;1.00;;;;;;;5.20;100.00;92057.00;2109352;28;20450;-86
2021/05/17 01:27:07;;;;;;;4.53;0.80;;;;;;;5.30;100.00;92053.41;2108235;27;20068;-85
2021/05/17 01:28:08;;;;;;;4.13;0.55;;;;;;;5.35;100.00;92054.81;2117560;27;20033;-85
2021/05/17 01:29:09;;;;;;;2.30;0.70;;;;;;;5.40;100.00;92067.63;2115859;27;20047;-86
2021/05/17 01:30:11;;;;;;;3.90;0.70;;;;;;;5.39;100.00;92070.66;2118081;27;20023;-86
2021/05/17 01:31:12;;;;;;;3.90;0.70;;;;;;;5.46;100.00;92058.00;2107323;28;20036;-86
2021/05/17 01:32:12;;;;;;;4.25;0.80;;;;;;;5.50;100.00;92060.59;2110565;28;20019;-86
2021/05/17 01:33:13;;;;;;;1.52;0.50;;;;;;;5.46;100.00;92060.66;2110100;28;20019;-86
2021/05/17 01:34:15;;;;;;;4.93;0.70;;;;;;;5.45;100.00;92067.13;2101141;28;20540;-87
2021/05/17 01:35:16;;;;;;;4.90;0.80;;;;;;;5.43;100.00;92058.81;2099840;28;20064;-85
2021/05/17 01:36:18;;;;;;;2.53;0.77;;;;;;;5.46;100.00;92060.66;2107124;28;20061;-86
2021/05/17 01:37:23;;;;;;;6.90;1.13;;;;;;;5.46;100.00;92058.00;2116200;27;20132;-86
2021/05/17 01:38:25;;;;;;;3.72;0.65;;;;;;;5.43;100.00;92055.44;2108212;28;20441;-85
2021/05/17 01:39:26;;;;;;;2.55;0.80;;;;;;;5.46;100.00;92071.28;2116114;27;20030;-87
2021/05/17 01:40:27;;;;;;;3.30;0.70;;;;;;;5.49;100.00;92057.22;2116858;27;20468;-85
2021/05/17 01:41:28;;;;;;;5.20;1.00;;;;;;;5.48;100.00;92058.34;2100866;28;20151;-87
2021/05/17 01:42:30;;;;;;;4.38;1.13;;;;;;;5.36;100.00;92058.97;2100142;28;20523;-87
2021/05/17 01:43:33;;;;;;;4.68;0.80;;;;;;;5.35;100.00;92052.16;2106569;28;20028;-88
2021/05/17 01:44:37;;;;;;;4.85;0.90;;;;;;;5.51;100.00;92052.22;2108887;27;20023;-87
2021/05/17 01:45:39;;;;;;;4.82;1.38;;;;;;;5.50;100.00;92047.34;2116395;27;20506;-87
2021/05/17 01:46:43;;;;;;;5.53;0.77;;;;;;;5.58;100.00;92055.91;2115620;27;20418;-86
2021/05/17 01:47:44;;;;;;;5.88;1.23;;;;;;;5.43;100.00;92053.53;2117246;27;20142;-86
2021/05/17 01:48:45;;;;;;;6.97;0.93;;;;;;;5.37;100.00;92059.72;2112903;27;20019;-85
2021/05/17 01:49:49;;;;;;;5.05;0.80;;;;;;;5.55;100.00;92052.91;2099138;28;20074;-86
2021/05/17 01:50:50;;;;;;;5.63;0.90;;;;;;;5.49;100.00;92054.56;2108614;28;20032;-85
2021/05/17 01:51:51;;;;;;;6.90;1.05;;;;;;;5.42;100.00;92048.66;2107738;28;20130;-87
2021/05/17 01:52:52;;;;;;;7.30;1.13;;;;;;;5.38;100.00;92040.75;2116018;27;20028;-86
2021/05/17 01:53:53;;;;;;;10.07;1.38;;;;;;;5.40;100.00;92049.06;2124611;27;20121;-85
2021/05/17 01:54:55;;;;;;;6.80;1.10;;;;;;;5.57;100.00;92044.53;2118466;27;20024;-85
2021/05/17 01:55:56;;;;;;;7.18;0.95;;;;;;;5.54;100.00;92050.69;2116759;27;20027;-85
2021/05/17 01:56:57;;;;;;;2.97;1.17;;;;;;;5.57;100.00;92044.53;2107222;28;20023;-86
2021/05/17 01:58:08;;;;;;;7.10;1.13;;;;;;;5.54;100.00;92046.13;2109513;27;20031;-86
2021/05/17 01:59:09;;;;;;;6.75;1.20;;;;;;;5.41;100.00;92045.25;2115682;27;20029;-86
2021/05/17 02:00:13;;;;;;;6.40;1.00;;;;;;;5.48;100.00;92047.00;2108618;28;20024;-88
2021/05/17 02:01:18;;;;;;;4.00;1.00;;;;;;;5.53;100.00;92054.47;2110259;27;20030;-84
2021/05/17 02:02:19;;;;;;;6.38;1.08;;;;;;;5.55;100.00;92042.31;2123139;27;20097;-85
2021/05/17 02:05:13;;;;;;;;;;;;;;;5.58;100.00;92048.72;2142703;27;20118;-87
2021/05/17 02:06:16;;;;;;;6.35;0.90;;;;;;;5.65;100.00;92055.75;2122991;27;19911;-87
2021/05/17 02:07:17;;;;;;;6.13;1.10;;;;;;;5.61;100.00;92047.88;2125316;27;20031;-87
2021/05/17 02:08:18;;;;;;;7.70;1.40;;;;;;;5.49;100.00;92045.88;2134171;27;20046;-87
2021/05/17 02:09:19;;;;;;;7.85;1.50;;;;;;;5.49;100.00;92043.97;2116424;27;20504;-86
2021/05/17 02:10:20;;;;;;;7.97;1.38;;;;;;;5.39;100.00;92041.50;2115530;28;20496;-87
2021/05/17 02:11:23;;;;;;;15.32;1.52;;;;;;;5.44;100.00;92046.31;2123610;27;20023;-87
2021/05/17 02:12:24;;;;;;;7.95;1.45;;;;;;;5.44;100.00;92038.38;2111207;28;20087;-87
2021/05/17 02:13:27;;;;;;;7.93;1.48;;;;;;;5.47;100.00;92051.56;2105096;28;20465;-87
2021/05/17 02:14:28;;;;;;;7.05;1.42;;;;;;;5.49;100.00;92051.91;2106681;27;20390;-85
2021/05/17 02:15:29;;;;;;;8.70;1.23;;;;;;;5.58;100.00;92054.00;2116657;27;20050;-87
2021/05/17 02:16:30;;;;;;;7.60;2.05;;;;;;;5.67;100.00;92056.09;2115088;28;20106;-87
2021/05/17 02:17:32;;;;;;;9.60;1.58;;;;;;;5.61;100.00;92063.03;2124858;27;20472;-88
2021/05/17 02:18:37;;;;;;;9.80;1.98;;;;;;;5.55;100.00;92058.22;2119168;27;20051;-86
2021/05/17 02:19:37;;;;;;;14.07;1.50;;;;;;;5.56;100.00;92056.31;2105693;27;20150;-86
2021/05/17 02:20:41;;;;;;;9.10;1.65;;;;;;;5.65;100.00;92061.81;2115695;27;20110;-87
2021/05/17 02:21:42;;;;;;;10.73;1.50;;;;;;;5.50;100.00;92064.00;2108129;27;20540;-88
2021/05/17 02:22:43;;;;;;;10.80;1.60;;;;;;;5.46;100.00;92063.31;2116874;27;20026;-86
2021/05/17 02:23:44;;;;;;;7.35;1.20;;;;;;;5.55;100.00;92076.03;2115112;27;20035;-87
2021/05/17 02:24:46;;;;;;;8.40;1.20;;;;;;;5.53;100.00;92073.03;2116942;27;20087;-87
2021/05/17 02:25:49;;;;;;;8.05;1.30;;;;;;;5.50;100.00;92064.00;2129332;27;20027;-86
2021/05/17 02:26:50;;;;;;;5.97;1.42;;;;;;;5.42;100.00;92067.94;2123325;27;20500;-86
2021/05/17 02:27:51;;;;;;;2.55;0.80;;;;;;;5.41;100.00;92066.44;2126212;27;20037;-87
2021/05/17 02:28:53;;;;;;;5.40;0.88;;;;;;;5.40;100.00;92064.19;2123799;27;20492;-86
2021/05/17 02:29:53;;;;;;;3.65;1.00;;;;;;;5.39;100.00;92060.06;2113989;28;20028;-86
2021/05/17 02:30:55;;;;;;;5.97;0.90;;;;;;;5.40;100.00;92053.59;2107276;28;20075;-86
2021/05/17 02:31:55;;;;;;;7.10;1.35;;;;;;;5.39;100.00;92052.84;2109035;27;20079;-86
2021/05/17 02:32:56;;;;;;;8.15;1.02;;;;;;;5.51;100.00;92059.44;2116439;28;20033;-89
2021/05/17 02:33:58;;;;;;;4.75;0.70;;;;;;;5.50;100.00;92057.94;2120108;28;20035;-87
2021/05/17 02:34:59;;;;;;;2.90;0.80;;;;;;;5.36;100.00;92052.94;2115638;28;20231;-85
2021/05/17 02:36:00;;;;;;;5.90;0.70;;;;;;;5.33;100.00;92059.78;2119056;27;20020;-88
2021/05/17 02:37:02;;;;;;;4.25;0.80;;;;;;;5.19;100.00;92052.13;2121855;27;20035;-87
2021/05/17 02:38:03;;;;;;;4.15;0.82;;;;;;;5.20;100.00;92056.25;2108313;27;20023;-88
2021/05/17 02:39:05;;;;;;;4.45;0.60;;;;;;;5.17;100.00;92068.41;2114856;28;20024;-86
2021/05/17 02:40:07;;;;;;;6.82;1.60;;;;;;;5.20;100.00;92061.56;2111622;27;20491;-86
2021/05/17 02:41:11;;;;;;;4.53;0.88;;;;;;;5.12;100.00;92066.22;2124517;27;20035;-87
2021/05/17 02:42:17;;;;;;;3.92;0.60;;;;;;;5.18;100.00;92067.28;2116204;28;20042;-87
2021/05/17 02:43:21;;;;;;;6.60;0.70;;;;;;;5.10;100.00;92071.19;2126231;27;20026;-87
2021/05/17 02:44:22;;;;;;;5.50;0.75;;;;;;;5.09;100.00;92055.69;2123754;27;20127;-86
2021/05/17 02:45:24;;;;;;;2.35;0.50;;;;;;;5.04;100.00;92062.22;2117306;27;20057;-87
2021/05/17 02:46:25;;;;;;;2.28;0.60;;;;;;;5.00;100.00;92062.31;2123243;27;20114;-85
2021/05/17 02:47:26;;;;;;;1.83;0.60;;;;;;;4.98;100.00;92059.28;2115484;27;20439;-88
2021/05/17 02:48:29;;;;;;;1.48;0.40;;;;;;;5.00;100.00;92064.19;2116614;28;20047;-87
2021/05/17 02:49:34;;;;;;;0.93;0.40;;;;;;;5.13;100.00;92059.03;2124154;27;20030;-87
2021/05/17 02:50:46;;;;;;;0.77;0.40;;;;;;;5.08;100.00;92059.50;2115549;27;20049;-87
2021/05/17 02:51:48;;;;;;;0.75;0.40;;;;;;;5.03;100.00;92058.06;2112865;27;20036;-88
2021/05/17 02:52:51;;;;;;;1.85;0.50;;;;;;;5.01;100.00;92058.50;2130859;27;20023;-87
2021/05/17 02:53:54;;;;;;;2.50;0.50;;;;;;;5.03;100.00;92066.75;2132650;27;20027;-86
2021/05/17 02:55:07;;;;;;;0.60;0.40;;;;;;;4.95;100.00;92056.69;2117809;27;20019;-87
2021/05/17 02:56:13;;;;;;;1.50;0.68;;;;;;;4.97;100.00;92063.09;2108603;27;20062;-88
2021/05/17 02:57:14;;;;;;;0.75;0.30;;;;;;;5.01;100.00;92055.84;2111917;27;20140;-89
2021/05/17 02:58:20;;;;;;;1.58;0.30;;;;;;;4.94;100.00;92066.56;2119533;28;20403;-87
2021/05/17 02:59:30;;;;;;;1.23;0.40;;;;;;;5.00;100.00;92070.25;2108787;28;20052;-89
2021/05/17 03:00:37;;;;;;;2.95;0.38;;;;;;;4.96;100.00;92055.53;2108991;27;20055;-86
2021/05/17 03:01:41;;;;;;;1.95;0.40;;;;;;;4.84;100.00;92059.56;2124906;27;20110;-86
2021/05/17 03:02:51;;;;;;;1.60;0.98;;;;;;;4.87;100.00;92060.63;2124215;27;20031;-87
2021/05/17 03:03:55;;;;;;;0.98;0.40;;;;;;;4.87;100.00;92068.56;2119495;27;20024;-84
2021/05/17 03:04:58;;;;;;;1.65;0.55;;;;;;;4.89;100.00;92055.69;2109574;28;20040;-86
2021/05/17 03:06:05;;;;;;;1.30;0.40;;;;;;;4.93;100.00;92066.97;2102232;28;20070;-87
2021/05/17 03:07:12;;;;;;;1.38;0.40;;;;;;;5.02;100.00;92064.53;2104782;28;20276;-87
2021/05/17 03:08:15;;;;;;;2.03;0.40;;;;;;;4.97;100.00;92060.44;2117422;27;20495;-87
2021/05/17 03:09:17;;;;;;;2.08;0.40;;;;;;;5.12;100.00;92068.88;2118292;27;20023;-86
2021/05/17 03:10:22;;;;;;;1.10;0.68;;;;;;;5.25;100.00;92074.31;2107046;28;20024;-85
2021/05/17 03:11:24;;;;;;;1.70;0.50;;;;;;;5.12;100.00;92073.44;2113565;27;20023;-86
2021/05/17 03:12:28;;;;;;;3.28;0.57;;;;;;;4.99;100.00;92074.03;2118007;27;20035;-86
2021/05/17 03:13:29;;;;;;;1.52;0.95;;;;;;;5.07;100.00;92079.19;2119308;27;20055;-88
2021/05/17 03:14:33;;;;;;;3.05;0.82;;;;;;;5.01;100.00;92076.28;2123825;27;20046;-85
2021/05/17 03:15:34;;;;;;;1.98;0.63;;;;;;;4.97;100.00;92081.63;2116253;27;20106;-88
2021/05/17 03:16:37;;;;;;;2.40;0.50;;;;;;;4.99;100.00;92091.81;2116758;27;20019;-86
2021/05/17 03:17:39;;;;;;;1.48;0.50;;;;;;;4.99;100.00;92076.66;2107581;28;20046;-85
2021/05/17 03:18:40;;;;;;;2.08;0.30;;;;;;;5.00;100.00;92074.75;2095421;28;20020;-86
2021/05/17 03:19:42;;;;;;;3.67;0.40;;;;;;;5.02;100.00;92078.50;2098959;27;20039;-88
2021/05/17 03:20:43;;;;;;;3.47;0.55;;;;;;;4.99;100.00;92074.03;2119360;27;20490;-88
2021/05/17 03:21:44;;;;;;;0.95;0.50;;;;;;;5.00;100.00;92074.75;2117908;27;20019;-86
2021/05/17 03:22:48;;;;;;;5.07;2.63;;;;;;;4.98;100.00;92072.53;2119534;27;20035;-87
2021/05/17 03:23:51;;;;;;;5.85;2.50;;;;;;;5.03;100.00;92080.00;2114414;27;20035;-88
2021/05/17 03:24:54;;;;;;;28.13;22.52;;;;;;;5.11;100.00;92075.34;2107240;28;20024;-87
2021/05/17 03:25:57;;;;;;;22.10;17.27;;;;;;;5.10;100.00;92084.44;2092854;28;20028;-87
2021/05/17 03:27:13;;;;;;;20.55;14.15;;;;;;;5.15;100.00;92080.56;2093387;28;20107;-87
2021/05/17 03:28:14;;;;;;;10.35;6.88;;;;;;;5.18;100.00;92087.69;2103047;28;20028;-87
2021/05/17 03:29:15;;;;;;;3.72;2.58;;;;;;;5.16;100.00;92079.41;2092076;28;20046;-87
2021/05/17 03:30:17;;;;;;;2.50;1.83;;;;;;;5.18;100.00;92085.81;2107867;28;20101;-87
2021/05/17 03:31:18;;;;;;;1.55;0.90;;;;;;;5.16;100.00;92082.06;2120161;27;20030;-87
2021/05/17 03:32:22;;;;;;;2.50;1.00;;;;;;;5.17;100.00;92089.59;2119004;27;20097;-86
2021/05/17 03:33:22;;;;;;;2.15;0.98;;;;;;;5.14;100.00;92084.38;2109760;28;20019;-86
2021/05/17 03:34:23;;;;;;;1.83;0.90;;;;;;;5.15;100.00;92085.88;2101969;28;20031;-87
2021/05/17 03:35:24;;;;;;;2.20;1.00;;;;;;;5.14;100.00;92077.19;2106555;28;20117;-87
2021/05/17 03:36:25;;;;;;;86.65;37.72;;;;;;;5.21;100.00;92079.69;2110101;28;20030;-88
2021/05/17 03:37:25;;;;;;;34.17;15.27;;;;;;;5.19;100.00;92075.97;2109170;28;20102;-86
2021/05/17 03:38:26;;;;;;;7.70;2.97;;;;;;;5.17;100.00;92081.66;2115929;27;20031;-87
2021/05/17 03:39:27;;;;;;;3.97;0.80;;;;;;;5.23;100.00;92076.66;2108044;28;20024;-86
2021/05/17 03:40:27;;;;;;;3.92;0.88;;;;;;;5.17;100.00;92081.66;2100677;28;20044;-86
2021/05/17 03:41:28;;;;;;;3.38;0.75;;;;;;;5.19;100.00;92083.91;2120196;27;20030;-86
2021/05/17 03:42:28;;;;;;;4.18;0.90;;;;;;;5.23;100.00;92082.69;2108623;28;20047;-87
2021/05/17 03:43:29;;;;;;;4.63;0.80;;;;;;;5.28;100.00;92084.84;2093136;28;20417;-86
2021/05/17 03:44:30;;;;;;;5.95;0.90;;;;;;;5.24;100.00;92078.88;2109214;28;20500;-87
2021/05/17 03:45:30;;;;;;;5.43;0.80;;;;;;;5.23;100.00;92081.94;2117322;27;20035;-86
2021/05/17 03:46:31;;;;;;;7.60;1.20;;;;;;;5.10;100.00;92079.16;2101126;28;20035;-87
2021/05/17 03:47:32;;;;;;;7.10;1.00;;;;;;;5.10;100.00;92083.69;2109968;28;20043;-86
2021/05/17 03:48:40;;;;;;;2.05;1.13;;;;;;;5.12;100.00;92079.47;2108541;28;20019;-85
2021/05/17 03:49:41;;;;;;;6.38;1.20;;;;;;;5.16;100.00;92079.41;2093523;28;20039;-88
2021/05/17 03:50:42;;;;;;;3.75;1.20;;;;;;;5.15;100.00;92075.28;2091566;28;20035;-86
2021/05/17 03:51:42;;;;;;;4.13;0.90;;;;;;;5.17;100.00;92078.25;2111437;28;20047;-87
2021/05/17 03:52:43;;;;;;;7.72;1.35;;;;;;;5.15;100.00;92073.38;2121153;27;20026;-86
2021/05/17 03:53:44;;;;;;;4.43;0.90;;;;;;;5.30;100.00;92085.19;2101844;28;20034;-88
2021/05/17 03:54:45;;;;;;;3.03;0.77;;;;;;;5.27;100.00;92072.78;2100132;28;20020;-87
2021/05/17 03:55:45;;;;;;;3.40;1.48;;;;;;;5.29;100.00;92077.66;2117772;27;20073;-86
2021/05/17 03:56:46;;;;;;;6.35;2.78;;;;;;;5.27;100.00;92082.63;2126199;27;20023;-87
2021/05/17 03:57:47;;;;;;;3.15;0.93;;;;;;;5.35;100.00;92081.31;2116165;27;20030;-86
2021/05/17 03:58:47;;;;;;;6.88;1.17;;;;;;;5.27;100.00;92088.66;2109700;28;20035;-87
2021/05/17 03:59:48;;;;;;;5.13;1.40;;;;;;;5.28;100.00;92089.41;2109069;28;20066;-87
2021/05/17 04:00:49;;;;;;;10.02;2.53;;;;;;;5.26;100.00;92089.06;2101421;28;20031;-87
2021/05/17 04:01:51;;;;;;;8.57;1.20;;;;;;;5.21;100.00;92089.53;2106478;28;20017;-87
2021/05/17 04:02:51;;;;;;;5.93;1.20;;;;;;;5.12;100.00;92089.31;2108657;28;20098;-87
2021/05/17 04:03:54;;;;;;;4.20;1.23;;;;;;;5.29;100.00;92096.94;2101778;28;20024;-87
2021/05/17 04:13:18;;;;;;;4.35;1.08;;;;;;;5.32;100.00;92087.44;2110727;27;20036;-87
2021/05/17 04:13:54;;;;;;;4.38;1.20;;;;;;;5.42;100.00;92096.34;2114878;27;20054;-86
2021/05/17 04:14:55;;;;;;;5.15;0.90;;;;;;;5.38;100.00;92090.38;2099207;28;20023;-86
2021/05/17 04:15:56;;;;;;;3.85;0.88;;;;;;;5.44;100.00;92091.38;2101625;28;20418;-85
2021/05/17 04:16:57;;;;;;;17.92;6.38;;;;;;;5.39;100.00;92091.84;2110434;28;20110;-87
2021/05/17 04:17:58;;;;;;;19.77;8.95;;;;;;;5.39;100.00;92089.19;2108830;28;20027;-87
2021/05/17 04:18:59;;;;;;;15.02;4.22;;;;;;;5.37;100.00;92096.81;2096226;28;20025;-86
2021/05/17 04:20:00;;;;;;;15.35;6.43;;;;;;;5.39;100.00;92095.25;2093038;28;20104;-86
2021/05/17 04:21:00;;;;;;;7.93;3.50;;;;;;;5.41;100.00;92105.47;2089925;28;20102;-86
2021/05/17 04:22:01;;;;;;;2.70;1.20;;;;;;;5.36;100.00;92104.03;2109127;28;20497;-86
2021/05/17 04:23:02;;;;;;;5.90;2.92;;;;;;;5.30;100.00;92103.00;2117386;27;20027;-86
2021/05/17 04:24:03;;;;;;;5.80;1.70;;;;;;;5.34;100.00;92094.97;2110310;28;20564;-86
2021/05/17 04:25:05;;;;;;;4.63;1.00;;;;;;;5.37;100.00;92102.13;2104397;28;20024;-86
2021/05/17 04:26:06;;;;;;;7.25;1.48;;;;;;;5.40;100.00;92102.06;2104809;28;20020;-87
2021/05/17 04:27:07;;;;;;;4.93;1.05;;;;;;;5.37;100.00;92099.47;2101747;28;20039;-84
2021/05/17 04:28:07;;;;;;;6.43;2.22;;;;;;;5.35;100.00;92102.50;2099583;28;20067;-85
2021/05/17 04:29:08;;;;;;;7.55;3.00;;;;;;;5.39;100.00;92102.44;2099587;28;20032;-86
2021/05/17 04:30:09;;;;;;;7.68;3.42;;;;;;;5.34;100.00;92100.28;2101405;28;20028;-86
2021/05/17 04:31:10;;;;;;;10.70;4.30;;;;;;;5.32;100.00;92113.94;2093023;28;20052;-87
2021/05/17 04:32:11;;;;;;;5.30;1.60;;;;;;;5.24;100.00;92109.91;2092372;28;20501;-87
2021/05/17 04:33:11;;;;;;;3.70;2.00;;;;;;;5.42;100.00;92107.69;2109880;28;20019;-86
2021/05/17 04:34:12;;;;;;;4.25;1.95;;;;;;;5.41;100.00;92111.50;2094152;28;20032;-85
2021/05/17 04:35:13;;;;;;;4.85;1.38;;;;;;;5.47;100.00;92114.41;2103197;28;20030;-86
2021/05/17 04:36:14;;;;;;;6.25;1.00;;;;;;;5.43;100.00;92113.72;2109682;28;20086;-86
2021/05/17 04:37:15;;;;;;;2.20;1.00;;;;;;;5.47;100.00;92115.16;2100065;28;20027;-86
2021/05/17 04:38:16;;;;;;;4.25;1.40;;;;;;;5.53;100.00;92115.44;2108634;28;20548;-86
2021/05/17 04:39:16;;;;;;;5.43;1.25;;;;;;;5.37;100.00;92116.13;2106922;28;20026;-86
2021/05/17 04:40:17;;;;;;;4.85;2.75;;;;;;;5.36;100.00;92116.53;2107982;28;20047;-84
2021/05/17 04:41:18;;;;;;;4.13;1.42;;;;;;;5.42;100.00;92122.84;2121681;27;20043;-87
2021/05/17 04:42:18;;;;;;;5.72;1.33;;;;;;;5.30;100.00;92118.88;2129183;27;20513;-86
2021/05/17 04:43:19;;;;;;;4.85;2.00;;;;;;;5.25;100.00;92117.44;2108863;28;20594;-85
2021/05/17 04:44:20;;;;;;;3.33;1.15;;;;;;;5.32;100.00;92113.19;2099351;28;20358;-86
2021/05/17 04:45:23;;;;;;;3.83;0.60;;;;;;;5.44;100.00;92115.97;2104011;28;20042;-85
2021/05/17 04:46:24;;;;;;;3.65;1.63;;;;;;;5.36;100.00;92113.88;2106169;28;20405;-86
2021/05/17 04:47:25;;;;;;;3.08;1.17;;;;;;;5.45;100.00;92112.19;2108574;28;20302;-87
2021/05/17 04:48:25;;;;;;;4.00;1.80;;;;;;;5.40;100.00;92112.66;2112822;28;20449;-86
2021/05/17 04:49:26;;;;;;;5.15;0.75;;;;;;;5.36;100.00;92113.88;2104732;28;20039;-86
2021/05/17 04:50:27;;;;;;;4.93;0.80;;;;;;;5.35;100.00;92113.09;2111469;28;20023;-87
2021/05/17 04:51:28;;;;;;;6.53;2.40;;;;;;;5.36;100.00;92119.94;2113536;28;20023;-85
2021/05/17 04:52:28;;;;;;;10.73;4.03;;;;;;;5.33;100.00;92119.97;2109035;28;20076;-86
2021/05/17 04:53:29;;;;;;;4.35;3.05;;;;;;;5.47;100.00;92123.09;2116376;27;20030;-87
2021/05/17 04:54:30;;;;;;;6.63;3.60;;;;;;;5.47;100.00;92112.50;2105438;28;20031;-86
2021/05/17 04:55:30;;;;;;;4.82;2.65;;;;;;;5.46;100.00;92121.63;2117397;27;20034;-85
2021/05/17 04:56:31;;;;;;;5.18;1.40;;;;;;;5.53;100.00;92124.16;2107892;28;20040;-86
2021/05/17 04:57:32;;;;;;;4.03;0.82;;;;;;;5.49;100.00;92126.13;2091300;28;20070;-86
2021/05/17 04:58:32;;;;;;;7.53;1.10;;;;;;;5.54;100.00;92122.25;2089764;28;20183;-86
2021/05/17 04:59:33;;;;;;;5.15;2.15;;;;;;;5.66;100.00;92123.50;2099045;28;20035;-86
2021/05/17 05:00:34;;;;;;;3.42;2.47;;;;;;;5.68;100.00;92126.53;2099216;28;20039;-86
2021/05/17 05:01:35;;;;;;;3.28;2.10;;;;;;;5.65;100.00;92122.78;2100542;28;20123;-86
2021/05/17 05:02:36;;;;;;;9.38;2.85;;;;;;;5.63;100.00;92133.06;2099865;28;20031;-86